Time;durP1;ratioP1;P1;durP2;ratioP2;P2;SDS_P1;SDS_P2;PMS_P1;PMS_P2;Temp;Humidity;BMP_temperature;BMP_pressure;BME280_temperature;BME280_humidity;BME280_pressure;Samples;Min_cycle;Max_cycle;Signal;HPM_P1;HPM_P2
2021/01/18 00:04:19;;;;;;;11.30;5.87;;;;;;;;;;10367759;28;20214;-72
2021/01/18 00:09:21;;;;;;;10.43;4.43;;;;;;;;;;10362628;28;20230;-71
2021/01/18 00:14:22;;;;;;;11.93;6.90;;;;;;;;;;10362825;28;20186;-72
2021/01/18 00:19:25;;;;;;;10.70;5.00;;;;;;;;;;10361177;28;20297;-72
2021/01/18 00:24:26;;;;;;;11.17;6.00;;;;;;;;;;10361748;28;20198;-71
2021/01/18 00:29:28;;;;;;;10.27;5.47;;;;;;;;;;10346364;28;20309;-72
2021/01/18 00:34:30;;;;;;;7.13;3.30;;;;;;;;;;10362752;28;20190;-72
2021/01/18 00:39:32;;;;;;;8.73;3.90;;;;;;;;;;10359794;28;20267;-71
2021/01/18 00:44:33;;;;;;;9.63;5.13;;;;;;;;;;10360338;28;20223;-71
2021/01/18 00:49:36;;;;;;;5.23;2.97;;;;;;;;;;10361089;28;20653;-71
2021/01/18 00:54:38;;;;;;;8.00;4.13;;;;;;;;;;10358982;28;20719;-71
2021/01/18 00:59:40;;;;;;;5.17;2.90;;;;;;;;;;10358199;28;22187;-71
2021/01/18 01:04:42;;;;;;;8.77;5.30;;;;;;;;;;10362653;28;20224;-71
2021/01/18 01:09:44;;;;;;;8.77;4.50;;;;;;;;;;10358598;28;20269;-69
2021/01/18 01:14:46;;;;;;;9.97;5.50;;;;;;;;;;10361964;28;21498;-72
2021/01/18 01:19:48;;;;;;;9.23;4.80;;;;;;;;;;10362224;28;20647;-71
2021/01/18 01:24:50;;;;;;;4.33;1.93;;;;;;;;;;10363575;28;20638;-70
2021/01/18 01:29:52;;;;;;;7.00;3.10;;;;;;;;;;10364895;28;20225;-68
2021/01/18 01:34:54;;;;;;;7.07;3.30;;;;;;;;;;10366233;28;20198;-71
2021/01/18 01:39:56;;;;;;;6.73;3.47;;;;;;;;;;10355078;28;20674;-71
2021/01/18 01:44:57;;;;;;;8.10;4.23;;;;;;;;;;10356291;28;20594;-72
2021/01/18 01:50:04;;;;;;;6.90;3.57;;;;;;;;;;10354916;28;20246;-71
2021/01/18 01:55:08;;;;;;;8.47;4.43;;;;;;;;;;10363631;28;20564;-71
2021/01/18 02:00:10;;;;;;;7.27;3.50;;;;;;;;;;10336047;28;20557;-72
2021/01/18 02:05:14;;;;;;;8.20;3.50;;;;;;;;;;10360833;28;20201;-72
2021/01/18 02:10:16;;;;;;;7.80;3.80;;;;;;;;;;10360473;28;20584;-71
2021/01/18 02:15:27;;;;;;;7.40;3.57;;;;;;;;;;10359317;28;20194;-72
2021/01/18 02:20:47;;;;;;;5.20;2.60;;;;;;;;;;10360752;28;20282;-70
2021/01/18 02:25:49;;;;;;;9.80;4.77;;;;;;;;;;10355630;28;20293;-71
2021/01/18 02:31:03;;;;;;;6.83;3.60;;;;;;;;;;10364256;28;20225;-71
2021/01/18 02:36:12;;;;;;;8.87;4.10;;;;;;;;;;10371602;28;20557;-70
2021/01/18 02:41:20;;;;;;;7.23;3.77;;;;;;;;;;10364989;28;20245;-70
2021/01/18 02:46:23;;;;;;;8.93;4.93;;;;;;;;;;10361241;28;20226;-70
2021/01/18 02:51:27;;;;;;;7.93;4.30;;;;;;;;;;10344690;28;20539;-71
2021/01/18 02:56:30;;;;;;;8.37;4.57;;;;;;;;;;10356225;28;20265;-70
2021/01/18 03:01:50;;;;;;;7.20;2.73;;;;;;;;;;10364708;28;20210;-70
2021/01/18 03:06:57;;;;;;;8.80;4.63;;;;;;;;;;10361834;28;20685;-71
2021/01/18 03:12:03;;;;;;;9.23;4.70;;;;;;;;;;10366447;28;20218;-71
2021/01/18 03:17:05;;;;;;;9.47;4.97;;;;;;;;;;10358952;28;20186;-71
2021/01/18 03:22:08;;;;;;;12.03;3.70;;;;;;;;;;10364373;28;20818;-71
2021/01/18 03:27:12;;;;;;;9.77;4.93;;;;;;;;;;10366780;28;20542;-71
2021/01/18 03:32:14;;;;;;;6.20;3.03;;;;;;;;;;10354118;28;20232;-70
2021/01/18 03:37:17;;;;;;;6.10;2.70;;;;;;;;;;10365674;28;20226;-73
2021/01/18 03:42:18;;;;;;;9.50;4.77;;;;;;;;;;10362255;28;20300;-70
2021/01/18 03:47:20;;;;;;;9.10;3.90;;;;;;;;;;10339973;28;20222;-71
2021/01/18 03:52:23;;;;;;;5.90;2.50;;;;;;;;;;10356394;28;20249;-71
2021/01/18 03:57:24;;;;;;;8.90;4.57;;;;;;;;;;10359014;28;20191;-71
2021/01/18 04:02:26;;;;;;;8.50;3.97;;;;;;;;;;10363720;28;20202;-71
2021/01/18 04:07:28;;;;;;;7.50;3.53;;;;;;;;;;10359584;28;20241;-71
2021/01/18 04:12:30;;;;;;;10.50;4.83;;;;;;;;;;10364453;28;20286;-71
2021/01/18 04:17:31;;;;;;;12.23;4.80;;;;;;;;;;10361895;28;20269;-70
2021/01/18 04:22:34;;;;;;;9.00;4.30;;;;;;;;;;10363894;28;20853;-72
2021/01/18 04:27:35;;;;;;;10.17;4.70;;;;;;;;;;10364182;28;20215;-70
2021/01/18 04:32:37;;;;;;;8.13;3.63;;;;;;;;;;10362404;28;20285;-68
2021/01/18 04:37:39;;;;;;;6.27;2.63;;;;;;;;;;10362322;28;20267;-70
2021/01/18 04:42:42;;;;;;;11.23;4.47;;;;;;;;;;10357836;28;20206;-68
2021/01/18 04:47:44;;;;;;;11.43;5.47;;;;;;;;;;10363343;28;20250;-70
2021/01/18 04:52:48;;;;;;;8.60;3.77;;;;;;;;;;10358812;28;20249;-71
2021/01/18 04:57:57;;;;;;;7.70;3.33;;;;;;;;;;10360656;28;20346;-70
2021/01/18 05:03:03;;;;;;;8.17;3.57;;;;;;;;;;10368485;28;20202;-71
2021/01/18 05:08:07;;;;;;;9.53;3.33;;;;;;;;;;10362288;28;20297;-71
2021/01/18 05:13:08;;;;;;;11.10;5.30;;;;;;;;;;10359664;28;20237;-70
2021/01/18 05:18:10;;;;;;;9.13;3.77;;;;;;;;;;10352291;28;20308;-70
2021/01/18 05:23:12;;;;;;;8.63;3.90;;;;;;;;;;10361181;28;20556;-71
2021/01/18 05:28:14;;;;;;;12.93;5.60;;;;;;;;;;10364733;28;20398;-70
2021/01/18 05:33:16;;;;;;;8.87;3.90;;;;;;;;;;10361636;28;20206;-70
2021/01/18 05:38:18;;;;;;;11.00;5.40;;;;;;;;;;10363036;28;20226;-69
2021/01/18 05:43:32;;;;;;;12.77;6.20;;;;;;;;;;10358755;28;20265;-69
2021/01/18 05:48:33;;;;;;;11.03;5.40;;;;;;;;;;10354091;28;20301;-70
2021/01/18 05:53:36;;;;;;;12.97;6.30;;;;;;;;;;10361142;28;20191;-71
2021/01/18 05:58:37;;;;;;;10.63;5.13;;;;;;;;;;10358328;28;20211;-72
2021/01/18 06:03:39;;;;;;;19.10;5.30;;;;;;;;;;10362776;28;20249;-70
2021/01/18 06:08:52;;;;;;;8.60;2.83;;;;;;;;;;10364669;28;20242;-72
2021/01/18 06:13:58;;;;;;;10.37;3.93;;;;;;;;;;10366714;28;20194;-70
2021/01/18 06:19:03;;;;;;;5.07;2.43;;;;;;;;;;10366385;28;20226;-69
2021/01/18 06:24:19;;;;;;;7.23;3.30;;;;;;;;;;10373962;28;20277;-69
2021/01/18 06:29:37;;;;;;;9.97;3.77;;;;;;;;;;10347558;28;20238;-71
2021/01/18 06:34:39;;;;;;;11.47;5.50;;;;;;;;;;10351266;28;20221;-70
2021/01/18 06:39:42;;;;;;;10.37;5.10;;;;;;;;;;10365967;28;20642;-70
2021/01/18 06:44:43;;;;;;;9.10;4.47;;;;;;;;;;10363034;28;20571;-71
2021/01/18 06:49:45;;;;;;;11.37;5.10;;;;;;;;;;10359604;28;20214;-69
2021/01/18 06:54:51;;;;;;;10.63;5.33;;;;;;;;;;10365777;28;20198;-70
2021/01/18 06:59:54;;;;;;;12.50;5.47;;;;;;;;;;10367641;28;20242;-71
2021/01/18 07:05:04;;;;;;;11.93;5.53;;;;;;;;;;10363929;28;20281;-70
2021/01/18 07:10:08;;;;;;;9.97;5.30;;;;;;;;;;10367947;28;20594;-70
2021/01/18 07:15:10;;;;;;;11.07;4.87;;;;;;;;;;10362073;28;20281;-71
2021/01/18 07:20:13;;;;;;;12.30;6.07;;;;;;;;;;10368956;28;20247;-71
2021/01/18 07:25:35;;;;;;;10.83;5.40;;;;;;;;;;10364921;28;20222;-71
2021/01/18 07:30:37;;;;;;;11.77;5.60;;;;;;;;;;10340575;28;20718;-70
2021/01/18 07:35:40;;;;;;;8.87;4.50;;;;;;;;;;10365600;28;20635;-71
2021/01/18 07:41:03;;;;;;;11.17;5.80;;;;;;;;;;10365483;28;20630;-70
2021/01/18 07:46:19;;;;;;;9.93;5.03;;;;;;;;;;10356219;28;20232;-69
2021/01/18 07:51:22;;;;;;;7.93;4.63;;;;;;;;;;10358794;28;20587;-70
2021/01/18 07:56:25;;;;;;;11.80;4.73;;;;;;;;;;10360837;28;20277;-70
2021/01/18 08:01:27;;;;;;;8.43;3.63;;;;;;;;;;10353788;28;20825;-69
2021/01/18 08:06:29;;;;;;;9.80;3.33;;;;;;;;;;10365031;28;20290;-69
2021/01/18 08:11:32;;;;;;;11.80;5.40;;;;;;;;;;10366851;28;20854;-69
2021/01/18 08:16:40;;;;;;;9.67;4.20;;;;;;;;;;10348602;28;20191;-70
2021/01/18 08:21:44;;;;;;;11.03;4.57;;;;;;;;;;10345488;28;20670;-69
2021/01/18 08:26:52;;;;;;;5.10;2.10;;;;;;;;;;10367123;28;20945;-71
2021/01/18 08:32:12;;;;;;;9.80;4.53;;;;;;;;;;10342957;28;20325;-69
2021/01/18 08:37:14;;;;;;;5.83;2.43;;;;;;;;;;10357221;28;20201;-69
2021/01/18 08:42:24;;;;;;;7.63;3.60;;;;;;;;;;10362893;28;20231;-71
2021/01/18 08:47:36;;;;;;;5.57;2.13;;;;;;;;;;10360472;28;20559;-71
2021/01/18 08:52:37;;;;;;;8.57;3.20;;;;;;;;;;10361530;28;20218;-69
2021/01/18 08:57:41;;;;;;;9.30;3.93;;;;;;;;;;10360868;28;20282;-69
2021/01/18 09:02:47;;;;;;;5.07;2.43;;;;;;;;;;10359874;28;20276;-70
2021/01/18 09:07:49;;;;;;;7.97;3.67;;;;;;;;;;10340425;28;20225;-70
2021/01/18 09:12:52;;;;;;;2.60;1.87;;;;;;;;;;10344985;28;20313;-71
2021/01/18 09:17:53;;;;;;;9.40;3.40;;;;;;;;;;10361678;28;20687;-69
2021/01/18 09:23:03;;;;;;;10.77;4.40;;;;;;;;;;10359944;28;20233;-70
2021/01/18 09:28:24;;;;;;;7.57;3.53;;;;;;;;;;10359587;28;20228;-69
2021/01/18 09:33:26;;;;;;;6.87;3.33;;;;;;;;;;10359672;28;20198;-69
2021/01/18 09:38:28;;;;;;;6.97;2.70;;;;;;;;;;10360439;28;20245;-68
2021/01/18 09:43:32;;;;;;;9.87;4.17;;;;;;;;;;10372648;28;20186;-70
2021/01/18 09:48:34;;;;;;;9.80;4.07;;;;;;;;;;10351376;28;20734;-69
2021/01/18 09:53:36;;;;;;;7.53;2.30;;;;;;;;;;10369860;28;20211;-70
2021/01/18 09:58:39;;;;;;;8.07;3.50;;;;;;;;;;10364299;28;20238;-69
2021/01/18 10:03:41;;;;;;;7.53;3.37;;;;;;;;;;10368798;28;20194;-70
2021/01/18 10:08:44;;;;;;;7.97;2.90;;;;;;;;;;10368712;28;20238;-69
2021/01/18 10:13:56;;;;;;;10.57;3.83;;;;;;;;;;10346602;28;20195;-70
2021/01/18 10:18:58;;;;;;;8.10;2.90;;;;;;;;;;10347824;28;20218;-70
2021/01/18 10:23:59;;;;;;;7.20;2.53;;;;;;;;;;10380012;28;20213;-70
2021/01/18 10:29:05;;;;;;;9.23;2.90;;;;;;;;;;10345124;28;20229;-70
2021/01/18 10:34:11;;;;;;;5.83;1.83;;;;;;;;;;10373575;28;20210;-70
2021/01/18 10:39:29;;;;;;;6.43;2.83;;;;;;;;;;10364705;28;20234;-69
2021/01/18 10:44:49;;;;;;;8.47;3.20;;;;;;;;;;10344492;28;20195;-70
2021/01/18 10:49:51;;;;;;;6.23;3.03;;;;;;;;;;10365609;28;20242;-70
2021/01/18 10:54:58;;;;;;;3.57;1.90;;;;;;;;;;10342897;28;20195;-71
2021/01/18 11:00:20;;;;;;;7.40;3.13;;;;;;;;;;10363137;28;20265;-70
2021/01/18 11:05:28;;;;;;;9.23;2.53;;;;;;;;;;10366246;28;20206;-69
2021/01/18 11:10:30;;;;;;;5.73;2.20;;;;;;;;;;10368325;28;20245;-69
2021/01/18 11:15:34;;;;;;;5.47;1.93;;;;;;;;;;10370797;28;20190;-69
2021/01/18 11:20:36;;;;;;;7.93;3.10;;;;;;;;;;10374938;28;20301;-70
2021/01/18 11:25:39;;;;;;;7.10;2.37;;;;;;;;;;10373205;28;20278;-70
2021/01/18 11:30:42;;;;;;;8.13;3.67;;;;;;;;;;10372162;28;20594;-70
2021/01/18 11:35:48;;;;;;;8.53;3.10;;;;;;;;;;10352773;28;20207;-70
2021/01/18 11:40:52;;;;;;;7.07;2.80;;;;;;;;;;10366550;28;20218;-69
2021/01/18 11:45:55;;;;;;;8.50;2.97;;;;;;;;;;10342284;28;20258;-69
2021/01/18 11:50:57;;;;;;;7.27;2.90;;;;;;;;;;10351575;28;20225;-70
2021/01/18 11:55:59;;;;;;;5.10;2.17;;;;;;;;;;10365487;28;20199;-71
2021/01/18 12:01:03;;;;;;;5.07;1.93;;;;;;;;;;10358041;28;20686;-69
2021/01/18 12:06:05;;;;;;;4.60;1.57;;;;;;;;;;10364941;28;20202;-70
2021/01/18 12:11:06;;;;;;;6.10;2.20;;;;;;;;;;10365281;28;20651;-69
2021/01/18 12:16:09;;;;;;;7.33;2.50;;;;;;;;;;10346675;28;20666;-70
2021/01/18 12:21:11;;;;;;;5.07;2.20;;;;;;;;;;10365875;28;20244;-69
2021/01/18 12:26:14;;;;;;;6.20;2.73;;;;;;;;;;10356500;28;20191;-67
2021/01/18 12:31:17;;;;;;;8.07;2.73;;;;;;;;;;10366303;28;20587;-71
2021/01/18 12:36:19;;;;;;;7.00;2.53;;;;;;;;;;10359303;28;20682;-69
2021/01/18 12:41:20;;;;;;;6.73;2.53;;;;;;;;;;10368047;28;20216;-69
2021/01/18 12:46:23;;;;;;;6.07;2.67;;;;;;;;;;10366242;28;20238;-70
2021/01/18 12:51:24;;;;;;;3.33;1.30;;;;;;;;;;10361445;28;20253;-70
2021/01/18 12:56:28;;;;;;;6.40;2.50;;;;;;;;;;10366971;28;20198;-68
2021/01/18 13:01:31;;;;;;;4.43;1.83;;;;;;;;;;10345026;28;20226;-71
2021/01/18 13:06:34;;;;;;;5.90;1.87;;;;;;;;;;10355186;28;21201;-68
2021/01/18 13:11:35;;;;;;;6.83;2.77;;;;;;;;;;10358968;28;20231;-70
2021/01/18 13:16:38;;;;;;;6.87;2.63;;;;;;;;;;10364674;28;20194;-70
2021/01/18 13:21:39;;;;;;;7.50;2.97;;;;;;;;;;10357845;28;20253;-70
2021/01/18 13:26:41;;;;;;;7.10;2.47;;;;;;;;;;10348272;28;20277;-73
2021/01/18 13:31:44;;;;;;;7.77;3.10;;;;;;;;;;10366572;28;20214;-69
2021/01/18 13:36:46;;;;;;;6.43;2.83;;;;;;;;;;10352472;28;20574;-71
2021/01/18 13:41:48;;;;;;;8.77;2.70;;;;;;;;;;10366073;28;20224;-69
2021/01/18 13:46:50;;;;;;;9.27;3.40;;;;;;;;;;10355378;28;20211;-72
2021/01/18 13:52:00;;;;;;;7.07;2.77;;;;;;;;;;10365408;28;20698;-72
2021/01/18 13:57:04;;;;;;;7.70;2.50;;;;;;;;;;10366095;28;20186;-71
2021/01/18 14:02:07;;;;;;;5.77;2.10;;;;;;;;;;10360343;28;20222;-70
2021/01/18 14:07:19;;;;;;;9.07;2.93;;;;;;;;;;10372164;28;20341;-69
2021/01/18 14:12:21;;;;;;;7.67;3.10;;;;;;;;;;10363846;28;20203;-69
2021/01/18 14:17:24;;;;;;;8.17;3.23;;;;;;;;;;10345402;28;20218;-70
2021/01/18 14:22:26;;;;;;;4.40;2.27;;;;;;;;;;10368670;28;20214;-71
2021/01/18 14:27:27;;;;;;;7.70;3.03;;;;;;;;;;10345841;28;20245;-70
2021/01/18 14:32:30;;;;;;;7.20;3.30;;;;;;;;;;10376337;28;20274;-70
2021/01/18 14:37:32;;;;;;;6.70;2.63;;;;;;;;;;10375525;28;20639;-70
2021/01/18 14:42:38;;;;;;;8.40;3.50;;;;;;;;;;10378605;28;20194;-70
2021/01/18 14:47:41;;;;;;;3.70;1.70;;;;;;;;;;10376276;28;20202;-69
2021/01/18 14:52:43;;;;;;;9.63;3.20;;;;;;;;;;10331079;28;20214;-69
2021/01/18 14:57:45;;;;;;;4.20;1.77;;;;;;;;;;10343187;28;20256;-69
2021/01/18 15:02:49;;;;;;;11.07;4.30;;;;;;;;;;10376620;28;20311;-70
2021/01/18 15:07:50;;;;;;;8.50;4.20;;;;;;;;;;10379274;28;20225;-70
2021/01/18 15:12:52;;;;;;;9.53;4.03;;;;;;;;;;10360487;28;20186;-70
2021/01/18 15:17:55;;;;;;;4.13;1.87;;;;;;;;;;10366563;28;20222;-70
2021/01/18 15:22:57;;;;;;;8.77;3.90;;;;;;;;;;10375362;28;20269;-70
2021/01/18 15:27:58;;;;;;;9.30;3.73;;;;;;;;;;10364387;28;20240;-70
2021/01/18 15:33:03;;;;;;;9.83;3.90;;;;;;;;;;10369220;28;20277;-70
2021/01/18 15:38:05;;;;;;;9.27;3.93;;;;;;;;;;10373215;28;20222;-69
2021/01/18 15:43:08;;;;;;;7.77;3.20;;;;;;;;;;10366549;28;20193;-69
2021/01/18 15:48:11;;;;;;;6.50;3.03;;;;;;;;;;10361624;28;20230;-70
2021/01/18 15:53:13;;;;;;;7.00;3.23;;;;;;;;;;10357889;28;20651;-70
2021/01/18 15:58:14;;;;;;;7.73;3.27;;;;;;;;;;10359180;28;20218;-69
2021/01/18 16:03:17;;;;;;;9.10;3.50;;;;;;;;;;10347093;28;20559;-70
2021/01/18 16:08:18;;;;;;;7.07;3.20;;;;;;;;;;10365531;28;20210;-70
2021/01/18 16:13:20;;;;;;;8.17;2.83;;;;;;;;;;10365006;28;20202;-69
2021/01/18 16:18:22;;;;;;;6.07;2.47;;;;;;;;;;10343699;28;20300;-69
2021/01/18 16:23:24;;;;;;;6.53;2.30;;;;;;;;;;10348618;28;20201;-70
2021/01/18 16:28:26;;;;;;;7.80;2.87;;;;;;;;;;10361214;28;20644;-70
2021/01/18 16:33:28;;;;;;;6.50;2.80;;;;;;;;;;10369026;28;20902;-70
2021/01/18 16:38:30;;;;;;;8.30;3.30;;;;;;;;;;10363284;28;20245;-69
2021/01/18 16:43:31;;;;;;;4.73;2.00;;;;;;;;;;10367983;28;20201;-70
2021/01/18 16:48:34;;;;;;;9.20;3.30;;;;;;;;;;10354547;28;20321;-71
2021/01/18 16:53:35;;;;;;;7.20;3.10;;;;;;;;;;10361535;28;20242;-70
2021/01/18 16:58:37;;;;;;;5.27;1.60;;;;;;;;;;10361789;28;20722;-70
2021/01/18 17:03:40;;;;;;;5.73;2.37;;;;;;;;;;10362692;28;20191;-70
2021/01/18 17:08:42;;;;;;;8.43;3.23;;;;;;;;;;10360685;28;20218;-70
2021/01/18 17:13:43;;;;;;;6.07;2.10;;;;;;;;;;10356598;28;20746;-70
2021/01/18 17:18:46;;;;;;;6.73;3.00;;;;;;;;;;10344558;28;20694;-70
2021/01/18 17:23:47;;;;;;;5.97;2.47;;;;;;;;;;10351105;28;20250;-68
2021/01/18 17:28:49;;;;;;;6.33;2.43;;;;;;;;;;10366661;28;20303;-69
2021/01/18 17:33:52;;;;;;;3.33;1.50;;;;;;;;;;10366072;28;20684;-69
2021/01/18 17:38:53;;;;;;;5.47;2.20;;;;;;;;;;10368369;28;20694;-70
2021/01/18 17:43:55;;;;;;;6.33;2.73;;;;;;;;;;10339618;28;20756;-69
2021/01/18 17:48:58;;;;;;;7.63;2.80;;;;;;;;;;10365879;28;20249;-70
2021/01/18 17:53:59;;;;;;;6.40;2.23;;;;;;;;;;10366136;28;20199;-70
2021/01/18 17:59:03;;;;;;;6.27;2.30;;;;;;;;;;10356460;28;20232;-71
2021/01/18 18:04:06;;;;;;;7.37;2.87;;;;;;;;;;10364005;28;20642;-70
2021/01/18 18:09:07;;;;;;;7.97;3.10;;;;;;;;;;10365248;28;20698;-74
2021/01/18 18:14:09;;;;;;;5.67;1.77;;;;;;;;;;10372400;28;20280;-70
2021/01/18 18:19:12;;;;;;;7.53;2.83;;;;;;;;;;10365570;28;20260;-71
2021/01/18 18:24:20;;;;;;;4.70;1.93;;;;;;;;;;10376370;28;20616;-70
2021/01/18 18:29:24;;;;;;;5.27;2.10;;;;;;;;;;10356685;28;20225;-70
2021/01/18 18:34:27;;;;;;;6.47;2.20;;;;;;;;;;10370276;28;20199;-72
2021/01/18 18:39:28;;;;;;;6.07;2.60;;;;;;;;;;10373495;28;20283;-68
2021/01/18 18:44:31;;;;;;;5.90;2.70;;;;;;;;;;10368564;28;20203;-69
2021/01/18 18:49:33;;;;;;;6.90;2.67;;;;;;;;;;10366318;28;20219;-69
2021/01/18 18:54:35;;;;;;;4.23;2.13;;;;;;;;;;10365639;28;20589;-69
2021/01/18 18:59:37;;;;;;;5.97;2.50;;;;;;;;;;10359202;28;20305;-72
2021/01/18 19:04:39;;;;;;;4.97;2.33;;;;;;;;;;10353223;28;20241;-70
2021/01/18 19:09:41;;;;;;;8.53;3.30;;;;;;;;;;10351796;28;20234;-71
2021/01/18 19:14:43;;;;;;;7.67;3.03;;;;;;;;;;10368883;28;20226;-70
2021/01/18 19:19:45;;;;;;;7.43;3.27;;;;;;;;;;10367571;28;20266;-70
2021/01/18 19:24:47;;;;;;;7.93;3.57;;;;;;;;;;10368630;28;20269;-71
2021/01/18 19:29:48;;;;;;;8.20;2.30;;;;;;;;;;10369676;28;20250;-71
2021/01/18 19:34:50;;;;;;;7.17;3.20;;;;;;;;;;10351969;28;20233;-70
2021/01/18 19:39:52;;;;;;;7.20;2.90;;;;;;;;;;10368748;28;20712;-70
2021/01/18 19:44:54;;;;;;;4.77;2.03;;;;;;;;;;10367268;28;20514;-70
2021/01/18 19:49:56;;;;;;;4.17;1.97;;;;;;;;;;10363709;28;20337;-70
2021/01/18 19:54:58;;;;;;;6.70;2.33;;;;;;;;;;10366203;28;20191;-71
2021/01/18 19:59:59;;;;;;;6.73;2.50;;;;;;;;;;10366268;28;20285;-70
2021/01/18 20:05:03;;;;;;;3.73;1.90;;;;;;;;;;10360586;28;20261;-70
2021/01/18 20:10:06;;;;;;;6.20;2.30;;;;;;;;;;10362613;28;20667;-70
2021/01/18 20:15:09;;;;;;;7.43;3.00;;;;;;;;;;10360335;28;20190;-70
2021/01/18 20:20:12;;;;;;;5.30;1.97;;;;;;;;;;10367016;28;20219;-70
2021/01/18 20:25:14;;;;;;;4.03;2.10;;;;;;;;;;10369330;28;20718;-69
2021/01/18 20:30:19;;;;;;;6.40;2.53;;;;;;;;;;10356101;28;20301;-70
2021/01/18 20:35:30;;;;;;;6.17;2.70;;;;;;;;;;10347883;28;20651;-67
2021/01/18 20:40:32;;;;;;;5.80;1.93;;;;;;;;;;10349105;28;20246;-70
2021/01/18 20:45:34;;;;;;;5.07;2.07;;;;;;;;;;10345944;28;20209;-72
2021/01/18 20:50:36;;;;;;;5.40;2.70;;;;;;;;;;10366751;28;20218;-71
2021/01/18 20:55:40;;;;;;;5.17;2.07;;;;;;;;;;10365185;28;20670;-71
2021/01/18 21:00:42;;;;;;;4.80;1.70;;;;;;;;;;10363520;28;20635;-71
2021/01/18 21:05:44;;;;;;;6.23;2.53;;;;;;;;;;10364860;28;20194;-72
2021/01/18 21:10:46;;;;;;;5.17;2.50;;;;;;;;;;10362291;28;20326;-69
2021/01/18 21:15:48;;;;;;;6.70;2.80;;;;;;;;;;10375898;28;20206;-71
2021/01/18 21:20:50;;;;;;;4.17;1.87;;;;;;;;;;10367248;28;20342;-72
2021/01/18 21:25:53;;;;;;;4.53;2.13;;;;;;;;;;10364120;28;20194;-72
2021/01/18 21:30:55;;;;;;;3.93;2.17;;;;;;;;;;10362704;28;20236;-69
2021/01/18 21:35:58;;;;;;;6.20;1.90;;;;;;;;;;10364388;28;20293;-71
2021/01/18 21:40:59;;;;;;;6.60;2.57;;;;;;;;;;10360871;28;20297;-74
2021/01/18 21:46:03;;;;;;;6.13;2.43;;;;;;;;;;10358403;28;20203;-71
2021/01/18 21:51:06;;;;;;;5.47;1.90;;;;;;;;;;10360163;28;20233;-73
2021/01/18 21:56:08;;;;;;;5.47;2.27;;;;;;;;;;10348027;28;20250;-71
2021/01/18 22:01:09;;;;;;;2.90;1.27;;;;;;;;;;10372651;28;20377;-72
2021/01/18 22:06:13;;;;;;;3.03;1.40;;;;;;;;;;10365203;28;20201;-71
2021/01/18 22:11:15;;;;;;;3.83;1.80;;;;;;;;;;10345417;28;20226;-72
2021/01/18 22:16:20;;;;;;;4.67;1.80;;;;;;;;;;10363019;28;20256;-72
2021/01/18 22:21:23;;;;;;;5.20;1.80;;;;;;;;;;10345503;28;20293;-71
2021/01/18 22:26:25;;;;;;;4.90;1.90;;;;;;;;;;10356341;28;20673;-71
2021/01/18 22:31:31;;;;;;;4.67;1.93;;;;;;;;;;10360702;28;20289;-70
2021/01/18 22:36:33;;;;;;;2.87;1.27;;;;;;;;;;10368456;28;20194;-71
2021/01/18 22:41:36;;;;;;;3.77;1.47;;;;;;;;;;10356832;28;20207;-71
2021/01/18 22:46:38;;;;;;;4.93;1.80;;;;;;;;;;10357994;28;20262;-70
2021/01/18 22:51:46;;;;;;;4.00;1.77;;;;;;;;;;10365767;28;20726;-71
2021/01/18 22:56:47;;;;;;;6.80;2.17;;;;;;;;;;10368419;28;20264;-71
2021/01/18 23:01:49;;;;;;;4.70;2.30;;;;;;;;;;10351725;28;20238;-69
2021/01/18 23:06:51;;;;;;;4.50;2.13;;;;;;;;;;10370058;28;20320;-71
2021/01/18 23:11:54;;;;;;;5.53;1.80;;;;;;;;;;10369095;28;20253;-70
2021/01/18 23:16:56;;;;;;;3.43;1.50;;;;;;;;;;10368703;28;20219;-71
2021/01/18 23:21:59;;;;;;;5.50;2.00;;;;;;;;;;10369152;28;20238;-71
2021/01/18 23:27:03;;;;;;;5.57;2.27;;;;;;;;;;10366323;28;20202;-70
2021/01/18 23:32:05;;;;;;;6.27;2.40;;;;;;;;;;10362109;28;20261;-71
2021/01/18 23:37:08;;;;;;;2.93;1.43;;;;;;;;;;10363820;28;20238;-71
2021/01/18 23:42:10;;;;;;;6.40;2.30;;;;;;;;;;10366538;28;20602;-71
2021/01/18 23:47:11;;;;;;;4.23;1.60;;;;;;;;;;10361394;28;20198;-72
2021/01/18 23:52:14;;;;;;;5.27;2.20;;;;;;;;;;10368786;28;20250;-71
2021/01/18 23:57:15;;;;;;;5.33;1.97;;;;;;;;;;10367413;28;20233;-72
